createdAt,value
2023-12-30T00:01:48.403Z,0.90
2023-12-30T00:04:16.048Z,1.02
2023-12-30T00:06:44.539Z,0.90
2023-12-30T00:09:12.133Z,1.15
2023-12-30T00:11:39.726Z,0.93
2023-12-30T00:14:07.402Z,1.60
2023-12-30T00:16:35.104Z,0.85
2023-12-30T00:19:04.096Z,0.93
2023-12-30T00:21:31.685Z,0.80
2023-12-30T00:23:59.324Z,0.93
2023-12-30T00:26:28.116Z,0.70
2023-12-30T00:28:55.737Z,0.90
2023-12-30T00:31:24.935Z,0.60
2023-12-30T00:33:53.598Z,0.73
2023-12-30T00:36:22.597Z,0.52
2023-12-30T00:38:50.427Z,0.70
2023-12-30T00:41:18.555Z,0.65
2023-12-30T00:43:46.149Z,0.75
2023-12-30T00:46:13.774Z,0.50
2023-12-30T00:48:41.487Z,0.80
2023-12-30T00:51:09.101Z,0.60
2023-12-30T00:53:38.019Z,0.90
2023-12-30T00:56:05.788Z,0.60
2023-12-30T00:58:33.399Z,0.47
2023-12-30T01:01:01.370Z,0.63
2023-12-30T01:03:29.033Z,0.90
2023-12-30T01:05:56.727Z,0.60
2023-12-30T01:08:24.370Z,0.50
2023-12-30T01:10:53.394Z,0.60
2023-12-30T01:13:21.080Z,0.45
2023-12-30T01:15:48.873Z,0.60
2023-12-30T01:18:16.701Z,0.73
2023-12-30T01:20:44.384Z,0.80
2023-12-30T01:23:12.052Z,0.50
2023-12-30T01:25:39.905Z,0.70
2023-12-30T01:28:09.068Z,0.60
2023-12-30T01:30:38.550Z,0.50
2023-12-30T01:33:07.522Z,0.80
2023-12-30T01:35:35.903Z,0.60
2023-12-30T01:38:06.018Z,0.50
2023-12-30T01:40:34.709Z,0.45
2023-12-30T01:43:04.310Z,0.45
2023-12-30T01:45:33.745Z,0.40
2023-12-30T01:48:03.217Z,0.65
2023-12-30T01:50:30.967Z,0.68
2023-12-30T01:52:58.715Z,0.60
2023-12-30T01:55:26.488Z,0.40
2023-12-30T01:57:54.180Z,0.60
2023-12-30T02:00:22.462Z,0.60
2023-12-30T02:02:51.668Z,0.80
2023-12-30T02:05:19.508Z,0.52
2023-12-30T02:07:48.217Z,0.43
2023-12-30T02:10:16.423Z,0.55
2023-12-30T02:12:45.670Z,0.45
2023-12-30T02:15:14.762Z,0.40
2023-12-30T02:17:42.829Z,0.35
2023-12-30T02:20:12.819Z,0.52
2023-12-30T02:22:45.232Z,0.50
2023-12-30T02:25:12.940Z,0.50
2023-12-30T02:27:40.594Z,0.50
2023-12-30T02:30:09.043Z,0.43
2023-12-30T02:32:36.695Z,0.60
2023-12-30T02:35:04.812Z,0.40
2023-12-30T02:37:32.625Z,0.38
2023-12-30T02:40:01.822Z,0.38
2023-12-30T02:42:29.435Z,0.40
2023-12-30T02:44:57.142Z,0.45
2023-12-30T02:47:24.773Z,0.47
2023-12-30T02:49:52.378Z,0.22
2023-12-30T02:52:20.029Z,0.30
2023-12-30T02:54:47.670Z,0.50
2023-12-30T02:57:16.677Z,0.50
2023-12-30T02:59:44.240Z,0.60
2023-12-30T03:02:11.933Z,0.40
2023-12-30T03:04:39.638Z,0.45
2023-12-30T03:07:07.431Z,0.55
2023-12-30T03:09:35.188Z,0.50
2023-12-30T03:12:03.475Z,0.52
2023-12-30T03:14:32.630Z,0.50
2023-12-30T03:17:00.254Z,0.50
2023-12-30T03:19:27.925Z,0.55
2023-12-30T03:21:55.766Z,0.60
2023-12-30T03:24:23.380Z,0.60
2023-12-30T03:26:54.371Z,0.52
2023-12-30T03:29:22.091Z,0.95
2023-12-30T03:31:51.063Z,0.68
2023-12-30T03:34:18.746Z,0.50
2023-12-30T03:36:46.365Z,1.60
2023-12-30T03:39:15.148Z,1.30
2023-12-30T03:41:42.719Z,1.13
2023-12-30T03:44:10.314Z,0.80
2023-12-30T03:46:39.441Z,0.73
2023-12-30T03:49:08.393Z,0.50
2023-12-30T03:51:36.085Z,0.75
2023-12-30T03:54:03.635Z,0.52
2023-12-30T03:56:32.754Z,1.08
2023-12-30T03:59:00.793Z,1.15
2023-12-30T04:01:28.631Z,1.13
2023-12-30T04:03:56.259Z,0.73
2023-12-30T04:06:25.296Z,0.55
2023-12-30T04:08:52.971Z,0.95
2023-12-30T04:11:20.690Z,0.82
2023-12-30T04:13:48.409Z,0.88
2023-12-30T04:16:16.155Z,0.65
2023-12-30T04:18:43.845Z,0.73
2023-12-30T04:21:11.462Z,0.80
2023-12-30T04:23:40.451Z,0.85
2023-12-30T04:26:08.053Z,0.47
2023-12-30T04:28:36.541Z,0.57
2023-12-30T04:31:04.385Z,0.52
2023-12-30T04:33:32.099Z,0.60
2023-12-30T04:35:59.750Z,0.57
2023-12-30T04:38:27.330Z,0.75
2023-12-30T04:40:56.786Z,0.60
2023-12-30T04:43:24.453Z,0.52
2023-12-30T04:45:52.137Z,0.80
2023-12-30T04:48:19.810Z,1.10
2023-12-30T04:50:47.428Z,0.93
2023-12-30T04:53:15.017Z,0.70
2023-12-30T04:55:43.176Z,0.68
2023-12-30T04:58:12.255Z,1.17
2023-12-30T05:00:40.171Z,1.15
2023-12-30T05:03:08.137Z,1.30
2023-12-30T05:05:36.140Z,0.63
2023-12-30T05:08:06.177Z,0.70
2023-12-30T05:10:34.867Z,0.98
2023-12-30T05:13:03.223Z,0.82
2023-12-30T05:15:32.549Z,0.70
2023-12-30T05:18:00.321Z,0.93
2023-12-30T05:20:28.269Z,0.88
2023-12-30T05:22:55.853Z,0.68
2023-12-30T05:25:23.518Z,0.82
2023-12-30T05:27:51.142Z,0.90
2023-12-30T05:30:18.944Z,1.30
2023-12-30T05:32:47.921Z,0.57
2023-12-30T05:35:15.810Z,0.70
2023-12-30T05:37:43.396Z,0.95
2023-12-30T05:40:12.150Z,0.50
2023-12-30T05:42:39.844Z,0.65
2023-12-30T05:45:08.823Z,0.70
2023-12-30T05:47:36.464Z,1.23
2023-12-30T05:50:07.035Z,0.63
2023-12-30T05:52:35.358Z,0.60
2023-12-30T05:55:03.423Z,0.57
2023-12-30T05:57:32.601Z,0.70
2023-12-30T06:00:00.815Z,0.82
2023-12-30T06:02:28.380Z,0.80
2023-12-30T06:04:56.007Z,0.75
2023-12-30T06:07:24.940Z,0.70
2023-12-30T06:09:52.578Z,0.75
2023-12-30T06:12:20.206Z,0.82
2023-12-30T06:14:47.801Z,0.95
2023-12-30T06:17:15.395Z,0.88
2023-12-30T06:19:43.063Z,1.13
2023-12-30T06:22:10.718Z,0.52
2023-12-30T06:24:39.687Z,0.88
2023-12-30T06:27:07.339Z,0.60
2023-12-30T06:29:34.925Z,0.70
2023-12-30T06:32:02.564Z,1.00
2023-12-30T06:34:30.191Z,0.98
2023-12-30T06:36:57.961Z,0.82
2023-12-30T06:39:25.695Z,0.77
2023-12-30T06:41:56.405Z,0.55
2023-12-30T06:46:54.494Z,0.55
2023-12-30T06:49:22.443Z,0.70
2023-12-30T06:51:50.134Z,1.00
2023-12-30T06:54:17.728Z,0.75
2023-12-30T06:56:45.373Z,0.60
2023-12-30T06:59:15.892Z,0.80
2023-12-30T07:01:43.624Z,0.88
2023-12-30T07:04:11.372Z,0.82
2023-12-30T07:06:39.015Z,0.65
2023-12-30T07:09:08.201Z,0.77
2023-12-30T07:11:36.605Z,0.75
2023-12-30T07:14:04.268Z,0.68
2023-12-30T07:16:33.266Z,0.63
2023-12-30T07:19:01.005Z,0.75
2023-12-30T07:21:28.629Z,1.17
2023-12-30T07:23:56.223Z,0.80
2023-12-30T07:26:23.857Z,0.77
2023-12-30T07:28:51.454Z,0.73
2023-12-30T07:31:19.109Z,0.63
2023-12-30T07:33:48.197Z,0.82
2023-12-30T07:36:15.869Z,0.55
2023-12-30T07:38:43.436Z,0.80
2023-12-30T07:41:15.249Z,0.70
2023-12-30T07:43:42.891Z,0.82
2023-12-30T07:46:10.571Z,0.45
2023-12-30T07:48:38.244Z,0.60
2023-12-30T07:51:07.390Z,0.55
2023-12-30T07:53:34.950Z,0.68
2023-12-30T07:56:02.517Z,0.80
2023-12-30T07:58:30.120Z,0.70
2023-12-30T08:00:57.840Z,0.70
2023-12-30T08:03:25.520Z,0.57
2023-12-30T08:05:53.231Z,0.80
2023-12-30T08:08:22.196Z,0.90
2023-12-30T08:10:49.758Z,0.82
2023-12-30T08:13:17.703Z,0.57
2023-12-30T08:15:45.325Z,0.52
2023-12-30T08:18:13.301Z,0.68
2023-12-30T08:20:41.138Z,0.70
2023-12-30T08:23:08.775Z,0.52
2023-12-30T08:25:38.083Z,0.60
2023-12-30T08:28:05.906Z,1.05
2023-12-30T08:30:33.520Z,0.75
2023-12-30T08:33:05.580Z,0.80
2023-12-30T08:35:33.597Z,0.52
2023-12-30T08:38:01.192Z,1.60
2023-12-30T08:40:28.946Z,0.82
2023-12-30T08:42:57.936Z,0.82
2023-12-30T08:45:25.022Z,0.63
2023-12-30T08:47:53.538Z,0.70
2023-12-30T08:50:21.312Z,0.63
2023-12-30T08:52:48.881Z,0.57
2023-12-30T08:55:16.622Z,1.00
2023-12-30T08:57:44.340Z,0.80
2023-12-30T09:00:16.617Z,0.63
2023-12-30T09:05:18.636Z,0.52
2023-12-30T09:07:46.400Z,0.75
2023-12-30T09:10:14.046Z,1.00
2023-12-30T09:12:41.638Z,1.20
2023-12-30T09:15:09.616Z,1.10
2023-12-30T09:17:38.775Z,1.10
2023-12-30T09:20:07.240Z,1.15
2023-12-30T09:22:35.042Z,0.98
2023-12-30T09:25:02.744Z,1.10
2023-12-30T09:27:30.402Z,1.88
2023-12-30T09:29:57.985Z,1.50
2023-12-30T09:32:25.647Z,1.35
2023-12-30T09:34:55.232Z,1.40
2023-12-30T09:37:23.267Z,1.40
2023-12-30T09:39:51.494Z,1.30
2023-12-30T09:42:19.094Z,1.45
2023-12-30T09:44:48.381Z,1.38
2023-12-30T09:47:16.156Z,2.00
2023-12-30T09:49:46.175Z,1.58
2023-12-30T09:52:15.583Z,1.85
2023-12-30T09:54:48.794Z,1.95
2023-12-30T09:57:17.890Z,1.92
2023-12-30T09:59:47.544Z,4.55
2023-12-30T10:02:15.910Z,6.43
2023-12-30T10:04:44.061Z,7.38
2023-12-30T10:07:12.928Z,6.57
2023-12-30T10:09:42.190Z,5.70
2023-12-30T10:12:10.676Z,5.00
2023-12-30T10:14:38.345Z,3.60
2023-12-30T10:17:06.070Z,3.22
2023-12-30T10:19:33.770Z,3.15
2023-12-30T10:22:01.480Z,3.17
2023-12-30T10:24:29.092Z,3.05
2023-12-30T10:27:04.205Z,2.50
2023-12-30T10:29:32.644Z,2.65
2023-12-30T10:32:05.037Z,2.67
2023-12-30T10:34:32.940Z,2.17
2023-12-30T10:37:01.670Z,2.17
2023-12-30T10:39:31.428Z,1.98
2023-12-30T10:42:00.369Z,1.85
2023-12-30T10:44:28.073Z,1.92
2023-12-30T10:46:57.927Z,2.53
2023-12-30T10:49:26.995Z,2.70
2023-12-30T10:51:56.350Z,2.50
2023-12-30T10:54:34.974Z,2.35
2023-12-30T10:57:10.796Z,3.30
2023-12-30T10:59:39.238Z,5.40
2023-12-30T11:02:08.639Z,4.28
2023-12-30T11:04:36.540Z,5.13
2023-12-30T11:07:07.653Z,4.47
2023-12-30T11:09:35.230Z,3.83
2023-12-30T11:12:07.026Z,3.90
2023-12-30T11:14:36.931Z,3.25
2023-12-30T11:17:05.342Z,2.95
2023-12-30T11:19:34.452Z,2.63
2023-12-30T11:22:03.381Z,2.60
2023-12-30T11:24:31.688Z,3.00
2023-12-30T11:26:59.691Z,3.80
2023-12-30T11:29:30.134Z,4.10
2023-12-30T11:31:59.952Z,3.60
2023-12-30T11:34:28.395Z,3.03
2023-12-30T11:37:00.488Z,3.47
2023-12-30T11:39:31.262Z,3.22
2023-12-30T11:41:59.615Z,3.55
2023-12-30T11:44:29.096Z,3.20
2023-12-30T11:46:57.613Z,3.00
2023-12-30T11:49:26.942Z,2.85
2023-12-30T11:52:03.462Z,3.22
2023-12-30T11:54:31.066Z,3.00
2023-12-30T11:56:58.931Z,2.85
2023-12-30T11:59:27.933Z,3.22
2023-12-30T12:02:07.387Z,2.97
2023-12-30T12:04:35.268Z,2.20
2023-12-30T12:07:02.947Z,2.60
2023-12-30T12:09:30.576Z,2.63
2023-12-30T12:11:58.197Z,2.60
2023-12-30T12:14:27.780Z,2.30
2023-12-30T12:16:55.418Z,2.42
2023-12-30T12:19:23.062Z,2.50
2023-12-30T12:21:50.728Z,2.30
2023-12-30T12:24:18.391Z,2.30
2023-12-30T12:26:46.051Z,2.72
2023-12-30T12:29:14.326Z,2.22
2023-12-30T12:31:48.217Z,2.60
2023-12-30T12:34:22.538Z,2.25
2023-12-30T12:36:50.410Z,2.20
2023-12-30T12:39:18.204Z,2.10
2023-12-30T12:41:47.390Z,1.88
2023-12-30T12:44:15.123Z,2.50
2023-12-30T12:46:42.838Z,2.10
2023-12-30T12:49:12.057Z,2.22
2023-12-30T12:51:40.372Z,2.65
2023-12-30T12:54:08.275Z,6.82
2023-12-30T12:56:36.314Z,10.30
2023-12-30T12:59:03.977Z,2.67
2023-12-30T13:01:31.825Z,2.75
2023-12-30T13:04:00.289Z,2.70
2023-12-30T13:06:29.517Z,2.30
2023-12-30T13:08:57.566Z,2.10
2023-12-30T13:11:28.361Z,2.42
2023-12-30T13:13:57.009Z,2.70
2023-12-30T13:16:25.075Z,2.22
2023-12-30T13:18:53.315Z,2.42
2023-12-30T13:21:21.304Z,2.47
2023-12-30T13:23:51.650Z,2.70
2023-12-30T13:26:19.833Z,2.70
2023-12-30T13:28:47.797Z,2.60
2023-12-30T13:31:19.262Z,2.50
2023-12-30T13:36:14.758Z,2.28
2023-12-30T13:38:45.402Z,2.28
2023-12-30T13:41:15.562Z,2.47
2023-12-30T13:43:44.847Z,2.50
2023-12-30T13:46:33.696Z,2.03
2023-12-30T13:49:32.576Z,2.03
2023-12-30T13:52:02.357Z,2.63
2023-12-30T13:54:30.162Z,2.33
2023-12-30T13:57:12.445Z,2.42
2023-12-30T13:59:44.158Z,2.47
2023-12-30T14:02:12.231Z,2.50
2023-12-30T14:04:41.440Z,3.10
2023-12-30T14:07:16.515Z,2.50
2023-12-30T14:09:50.890Z,2.70
2023-12-30T14:12:20.892Z,3.00
2023-12-30T14:14:54.465Z,2.10
2023-12-30T14:17:23.593Z,2.63
2023-12-30T14:19:51.298Z,2.65
2023-12-30T14:22:20.048Z,3.22
2023-12-30T14:24:47.877Z,7.38
2023-12-30T14:27:15.732Z,11.10
2023-12-30T14:29:46.918Z,6.78
2023-12-30T14:32:15.389Z,4.28
2023-12-30T14:34:43.329Z,5.80
2023-12-30T14:37:11.233Z,7.50
2023-12-30T14:39:39.043Z,8.43
2023-12-30T14:42:07.107Z,8.20
2023-12-30T14:44:34.995Z,4.00
2023-12-30T14:47:04.297Z,3.72
2023-12-30T14:49:32.036Z,2.97
2023-12-30T14:51:59.796Z,3.00
2023-12-30T14:54:27.454Z,3.08
2023-12-30T14:56:55.376Z,3.22
2023-12-30T14:59:23.443Z,3.33
2023-12-30T15:01:52.265Z,3.28
2023-12-30T15:04:22.506Z,2.90
2023-12-30T15:06:50.173Z,2.90
2023-12-30T15:09:18.257Z,3.10
2023-12-30T15:11:46.609Z,2.92
2023-12-30T15:14:14.243Z,2.83
2023-12-30T15:16:41.893Z,3.08
2023-12-30T15:19:09.580Z,4.07
2023-12-30T15:21:38.772Z,2.70
2023-12-30T15:24:07.292Z,2.38
2023-12-30T15:26:34.868Z,2.30
2023-12-30T15:29:02.756Z,3.00
2023-12-30T15:31:30.932Z,2.67
2023-12-30T15:33:58.879Z,2.10
2023-12-30T15:36:26.644Z,2.25
2023-12-30T15:38:56.430Z,2.63
2023-12-30T15:41:24.144Z,2.80
2023-12-30T15:43:51.836Z,3.20
2023-12-30T15:46:19.613Z,2.63
2023-12-30T15:48:47.335Z,2.70
2023-12-30T15:51:15.092Z,3.10
2023-12-30T15:53:42.769Z,2.70
2023-12-30T15:56:11.800Z,2.90
2023-12-30T15:58:39.834Z,2.60
2023-12-30T16:01:23.375Z,2.77
2023-12-30T16:03:55.136Z,3.95
2023-12-30T16:06:22.764Z,3.42
2023-12-30T16:08:50.518Z,3.35
2023-12-30T16:11:19.510Z,3.45
2023-12-30T16:13:47.181Z,3.30
2023-12-30T16:16:17.271Z,3.20
2023-12-30T16:18:45.023Z,3.85
2023-12-30T16:21:13.186Z,3.60
2023-12-30T16:23:40.946Z,3.65
2023-12-30T16:26:09.991Z,4.15
2023-12-30T16:28:40.472Z,3.55
2023-12-30T16:31:08.255Z,3.22
2023-12-30T16:33:41.482Z,3.67
2023-12-30T16:36:09.633Z,3.40
2023-12-30T16:38:38.009Z,3.70
2023-12-30T16:41:05.908Z,3.75
2023-12-30T16:43:34.997Z,3.75
2023-12-30T16:46:04.483Z,3.40
2023-12-30T16:48:32.158Z,3.13
2023-12-30T16:50:59.789Z,3.97
2023-12-30T16:53:27.339Z,3.55
2023-12-30T16:55:54.960Z,3.85
2023-12-30T16:58:24.346Z,3.60
2023-12-30T17:03:22.675Z,3.67
2023-12-30T17:05:50.291Z,2.83
2023-12-30T17:08:17.851Z,3.42
2023-12-30T17:10:45.451Z,2.85
2023-12-30T17:13:13.082Z,3.10
2023-12-30T17:15:41.850Z,3.25
2023-12-30T17:18:10.135Z,3.03
2023-12-30T17:20:39.349Z,2.63
2023-12-30T17:23:08.336Z,3.00
2023-12-30T17:25:36.064Z,2.70
2023-12-30T17:28:04.025Z,2.60
2023-12-30T17:30:31.674Z,3.13
2023-12-30T17:32:59.411Z,3.00
2023-12-30T17:35:28.175Z,2.92
2023-12-30T17:37:57.450Z,2.90
2023-12-30T17:40:25.286Z,2.65
2023-12-30T17:42:52.915Z,2.67
2023-12-30T17:45:20.486Z,2.80
2023-12-30T17:47:50.579Z,2.80
2023-12-30T17:50:18.475Z,2.33
2023-12-30T17:52:46.355Z,2.85
2023-12-30T17:55:16.044Z,2.45
2023-12-30T17:57:44.190Z,2.58
2023-12-30T18:00:13.259Z,2.53
2023-12-30T18:02:40.940Z,2.45
2023-12-30T18:05:09.235Z,2.35
2023-12-30T18:07:39.162Z,2.10
2023-12-30T18:10:07.282Z,2.20
2023-12-30T18:12:37.625Z,2.17
2023-12-30T18:15:06.101Z,2.75
2023-12-30T18:17:33.976Z,2.00
2023-12-30T18:20:01.778Z,2.08
2023-12-30T18:22:29.913Z,2.33
2023-12-30T18:24:58.036Z,2.53
2023-12-30T18:27:25.622Z,2.58
2023-12-30T18:29:54.626Z,2.13
2023-12-30T18:32:22.241Z,2.38
2023-12-30T18:34:49.837Z,2.50
2023-12-30T18:37:17.678Z,2.78
2023-12-30T18:39:45.323Z,3.05
2023-12-30T18:42:12.941Z,2.65
2023-12-30T18:44:40.897Z,2.78
2023-12-30T18:47:09.803Z,2.72
2023-12-30T18:49:37.474Z,3.00
2023-12-30T18:52:05.496Z,3.67
2023-12-30T18:54:33.084Z,2.88
2023-12-30T18:57:00.660Z,2.53
2023-12-30T18:59:28.733Z,2.72
2023-12-30T19:01:56.527Z,3.03
2023-12-30T19:04:25.583Z,3.08
2023-12-30T19:06:53.203Z,2.60
2023-12-30T19:09:20.767Z,3.00
2023-12-30T19:11:48.371Z,3.40
2023-12-30T19:14:16.109Z,3.20
2023-12-30T19:16:43.778Z,3.80
2023-12-30T19:19:11.421Z,3.00
2023-12-30T19:21:40.683Z,2.50
2023-12-30T19:24:09.593Z,2.50
2023-12-30T19:26:37.622Z,3.67
2023-12-30T19:29:05.738Z,3.70
2023-12-30T19:31:33.335Z,3.17
2023-12-30T19:34:00.928Z,3.55
2023-12-30T19:36:28.919Z,3.60
2023-12-30T19:38:57.984Z,3.75
2023-12-30T19:41:25.673Z,3.30
2023-12-30T19:43:53.388Z,3.70
2023-12-30T19:46:21.127Z,3.55
2023-12-30T19:48:49.753Z,2.75
2023-12-30T19:51:17.457Z,3.80
2023-12-30T19:53:45.261Z,2.95
2023-12-30T19:56:14.535Z,2.90
2023-12-30T19:58:42.212Z,3.20
2023-12-30T20:01:16.501Z,2.90
2023-12-30T20:03:44.458Z,3.10
2023-12-30T20:06:12.422Z,2.95
2023-12-30T20:08:40.279Z,3.25
2023-12-30T20:11:09.468Z,2.90
2023-12-30T20:13:40.166Z,2.80
2023-12-30T20:16:08.874Z,2.63
2023-12-30T20:18:38.401Z,2.50
2023-12-30T20:21:06.992Z,2.60
2023-12-30T20:23:35.836Z,2.40
2023-12-30T20:26:04.803Z,3.58
2023-12-30T20:28:32.455Z,2.50
2023-12-30T20:31:04.654Z,2.30
2023-12-30T20:33:32.560Z,2.60
2023-12-30T20:36:00.190Z,2.80
2023-12-30T20:38:27.766Z,2.33
2023-12-30T20:40:55.440Z,2.65
2023-12-30T20:43:23.121Z,2.78
2023-12-30T20:45:50.831Z,2.53
2023-12-30T20:48:19.960Z,2.20
2023-12-30T20:50:47.691Z,2.28
2023-12-30T20:53:17.188Z,2.63
2023-12-30T20:55:44.876Z,2.08
2023-12-30T20:58:12.502Z,2.38
2023-12-30T21:00:40.644Z,1.95
2023-12-30T21:03:08.259Z,2.35
2023-12-30T21:05:38.049Z,1.80
2023-12-30T21:08:06.125Z,3.38
2023-12-30T21:10:33.699Z,2.90
2023-12-30T21:13:01.518Z,2.33
2023-12-30T21:15:29.321Z,1.77
2023-12-30T21:17:57.009Z,1.90
2023-12-30T21:20:24.614Z,2.60
2023-12-30T21:22:55.959Z,1.80
2023-12-30T21:27:55.507Z,2.30
2023-12-30T21:30:25.054Z,2.10
2023-12-30T21:32:53.343Z,2.03
2023-12-30T21:35:21.042Z,2.15
2023-12-30T21:37:48.961Z,1.88
2023-12-30T21:40:20.326Z,1.95
2023-12-30T21:42:48.040Z,1.98
2023-12-30T21:45:15.820Z,2.00
2023-12-30T21:47:43.453Z,1.92
2023-12-30T21:50:11.588Z,2.30
2023-12-30T21:52:39.645Z,1.75
2023-12-30T21:55:08.093Z,2.50
2023-12-30T21:57:37.063Z,1.55
2023-12-30T22:00:05.837Z,1.80
2023-12-30T22:02:35.029Z,1.55
2023-12-30T22:05:02.960Z,1.77
2023-12-30T22:07:30.591Z,1.90
2023-12-30T22:09:58.402Z,1.83
2023-12-30T22:12:31.605Z,1.85
2023-12-30T22:15:00.784Z,1.63
2023-12-30T22:17:28.558Z,1.90
2023-12-30T22:19:57.425Z,1.75
2023-12-30T22:22:25.129Z,1.73
2023-12-30T22:24:52.732Z,1.85
2023-12-30T22:27:21.470Z,2.00
2023-12-30T22:29:49.110Z,1.60
2023-12-30T22:32:18.013Z,1.67
2023-12-30T22:34:45.683Z,1.50
2023-12-30T22:37:13.349Z,1.42
2023-12-30T22:39:40.934Z,1.55
2023-12-30T22:42:08.824Z,1.70
2023-12-30T22:44:38.556Z,1.88
2023-12-30T22:47:06.737Z,1.80
2023-12-30T22:49:35.653Z,1.80
2023-12-30T22:52:03.381Z,1.40
2023-12-30T22:54:31.003Z,1.65
2023-12-30T22:56:58.585Z,1.63
2023-12-30T22:59:26.152Z,1.70
2023-12-30T23:01:53.754Z,1.58
2023-12-30T23:04:21.445Z,1.42
2023-12-30T23:06:50.387Z,1.40
2023-12-30T23:09:20.070Z,1.70
2023-12-30T23:11:48.502Z,1.38
2023-12-30T23:14:16.446Z,1.35
2023-12-30T23:16:45.615Z,1.40
2023-12-30T23:19:13.341Z,1.50
2023-12-30T23:21:40.927Z,1.50
2023-12-30T23:24:09.877Z,1.52
2023-12-30T23:26:37.608Z,1.38
2023-12-30T23:29:05.222Z,1.42
2023-12-30T23:31:32.834Z,1.35
2023-12-30T23:34:00.620Z,1.20
2023-12-30T23:36:28.274Z,1.52
2023-12-30T23:38:55.844Z,1.38
2023-12-30T23:41:24.755Z,1.10
2023-12-30T23:43:53.440Z,1.52
2023-12-30T23:46:21.074Z,1.40
2023-12-30T23:48:48.722Z,1.33
2023-12-30T23:51:16.382Z,1.45
2023-12-30T23:53:43.994Z,1.30
2023-12-30T23:56:11.802Z,1.25
2023-12-30T23:58:40.737Z,1.33
